Time;durP1;ratioP1;P1;durP2;ratioP2;P2;SDS_P1;SDS_P2;PMS_P1;PMS_P2;Temp;Humidity;BMP_temperature;BMP_pressure;BME280_temperature;BME280_humidity;BME280_pressure;Samples;Min_cycle;Max_cycle;Signal;HPM_P1;HPM_P2
2023/02/26 00:01:14;;;;;;;;;;;;;;;-145.06;100.00;60892.56;5978158;23;19991;-91
2023/02/26 00:03:54;;;;;;;;;;;;;;;-145.06;100.00;60892.56;5977165;23;20462;-90
2023/02/26 00:06:35;;;;;;;;;;;;;;;-145.06;100.00;60892.56;5978965;23;20380;-89
2023/02/26 00:09:13;;;;;;;;;;;;;;;-145.06;100.00;60892.56;5977622;23;19908;-89
2023/02/26 00:11:52;;;;;;;;;;;;;;;-145.06;100.00;60892.56;5978816;23;20334;-91
2023/02/26 00:14:32;;;;;;;;;;;;;;;-145.06;100.00;60892.56;5978189;23;19912;-90
2023/02/26 00:17:30;;;;;;;;;;;;;;;-145.06;100.00;60892.56;5978085;23;19943;-89
2023/02/26 00:20:10;;;;;;;;;;;;;;;-145.06;100.00;60892.56;5979073;23;19908;-90
2023/02/26 00:22:49;;;;;;;;;;;;;;;-145.06;100.00;60892.56;5978000;23;19936;-90
2023/02/26 00:25:28;;;;;;;;;;;;;;;-145.06;100.00;60892.56;5978537;23;19912;-90
2023/02/26 00:28:08;;;;;;;;;;;;;;;-145.06;100.00;60892.56;5976669;23;19912;-91
2023/02/26 00:30:47;;;;;;;;;;;;;;;-145.06;100.00;60892.56;5977715;23;19912;-90
2023/02/26 00:33:26;;;;;;;;;;;;;;;-145.06;100.00;60892.56;5977468;23;20279;-90
2023/02/26 00:36:08;;;;;;;;;;;;;;;-145.06;100.00;60892.56;5977683;23;20600;-89
2023/02/26 00:38:55;;;;;;;;;;;;;;;-145.06;100.00;60892.56;5976403;23;19911;-89
2023/02/26 00:41:35;;;;;;;;;;;;;;;-145.06;100.00;60892.56;5978975;23;19908;-90
2023/02/26 00:44:14;;;;;;;;;;;;;;;-145.06;100.00;60892.56;5992045;22;19916;-91
2023/02/26 00:46:59;;;;;;;;;;;;;;;-145.06;100.00;60892.56;5999046;22;19903;-89
2023/02/26 00:49:38;;;;;;;;;;;;;;;-145.06;100.00;60892.56;5977282;23;19915;-90
2023/02/26 00:52:29;;;;;;;;;;;;;;;-145.06;100.00;60892.56;5977010;23;19912;-90
2023/02/26 00:55:08;;;;;;;;;;;;;;;-145.06;100.00;60892.56;5976963;23;19908;-91
2023/02/26 00:57:47;;;;;;;;;;;;;;;-145.06;100.00;60892.56;5975517;23;19979;-89
2023/02/26 01:00:26;;;;;;;;;;;;;;;-145.06;100.00;60892.56;5976706;23;19911;-90
2023/02/26 01:03:05;;;;;;;;;;;;;;;-145.06;100.00;60892.56;5975951;23;19987;-90
2023/02/26 01:05:44;;;;;;;;;;;;;;;-145.06;100.00;60892.56;5975818;23;19912;-91
2023/02/26 01:08:29;;;;;;;;;;;;;;;-145.06;100.00;60892.56;5975125;23;19916;-89
2023/02/26 01:11:08;;;;;;;;;;;;;;;-145.06;100.00;60892.56;5976621;23;19908;-90
2023/02/26 01:13:47;;;;;;;;;;;;;;;-145.06;100.00;60892.56;5975721;23;20326;-89
2023/02/26 01:16:26;;;;;;;;;;;;;;;-145.06;100.00;60892.56;5976879;23;19912;-90
2023/02/26 01:19:16;;;;;;;;;;;;;;;-145.06;100.00;60892.56;5974478;23;20022;-89
2023/02/26 01:22:00;;;;;;;;;;;;;;;-145.06;100.00;60892.56;6007924;23;19908;-90
2023/02/26 01:24:39;;;;;;;;;;;;;;;-145.06;100.00;60892.56;5975772;23;19912;-90
2023/02/26 01:27:18;;;;;;;;;;;;;;;-145.06;100.00;60892.56;5975109;23;19916;-90
2023/02/26 01:29:57;;;;;;;;;;;;;;;-145.06;100.00;60892.56;5975688;23;19912;-90
2023/02/26 01:32:55;;;;;;;;;;;;;;;-145.06;100.00;60892.56;5975796;23;19908;-90
2023/02/26 01:35:42;;;;;;;;;;;;;;;-145.06;100.00;60892.56;5977313;23;20669;-92
2023/02/26 01:38:27;;;;;;;;;;;;;;;-145.06;100.00;60892.56;5974034;23;19912;-90
2023/02/26 01:41:06;;;;;;;;;;;;;;;-145.06;100.00;60892.56;5975512;23;19908;-90
2023/02/26 01:43:45;;;;;;;;;;;;;;;-145.06;100.00;60892.56;6007818;23;20318;-90
2023/02/26 01:46:32;;;;;;;;;;;;;;;-145.06;100.00;60892.56;5977345;23;19908;-90
2023/02/26 01:49:13;;;;;;;;;;;;;;;-145.06;100.00;60892.56;5976814;23;19912;-91
2023/02/26 01:51:54;;;;;;;;;;;;;;;-145.06;100.00;60892.56;5975789;23;19911;-90
2023/02/26 01:54:37;;;;;;;;;;;;;;;-145.06;100.00;60892.56;5977178;23;19908;-90
2023/02/26 01:57:17;;;;;;;;;;;;;;;-145.06;100.00;60892.56;5976861;23;19936;-90
2023/02/26 01:59:56;;;;;;;;;;;;;;;-145.06;100.00;60892.56;5977006;23;19911;-91
2023/02/26 02:02:35;;;;;;;;;;;;;;;-145.06;100.00;60892.56;5976902;23;19912;-90
2023/02/26 02:05:18;;;;;;;;;;;;;;;-145.06;100.00;60892.56;5976758;23;19912;-91
2023/02/26 02:07:58;;;;;;;;;;;;;;;-145.06;100.00;60892.56;5977060;23;19916;-90
2023/02/26 02:10:40;;;;;;;;;;;;;;;-145.06;100.00;60892.56;5976821;23;19983;-90
2023/02/26 02:13:34;;;;;;;;;;;;;;;-145.06;100.00;60892.56;5976925;23;19912;-90
2023/02/26 02:16:13;;;;;;;;;;;;;;;-145.06;100.00;60892.56;5977794;23;19908;-89
2023/02/26 02:19:00;;;;;;;;;;;;;;;-145.06;100.00;60892.56;5976522;23;19912;-90
2023/02/26 02:21:45;;;;;;;;;;;;;;;-145.06;100.00;60892.56;5976128;23;19931;-89
2023/02/26 02:24:37;;;;;;;;;;;;;;;-145.06;100.00;60892.56;6009289;23;19943;-89
2023/02/26 02:27:28;;;;;;;;;;;;;;;-145.06;100.00;60892.56;5976368;23;19916;-89
2023/02/26 02:30:26;;;;;;;;;;;;;;;-145.06;100.00;60892.56;5977811;23;19908;-90
2023/02/26 02:33:28;;;;;;;;;;;;;;;-145.06;100.00;60892.56;5975938;23;20342;-90
2023/02/26 02:36:10;;;;;;;;;;;;;;;-145.06;100.00;60892.56;5976585;23;19912;-91
2023/02/26 02:38:57;;;;;;;;;;;;;;;-145.06;100.00;60892.56;5975530;23;19935;-89
2023/02/26 02:41:39;;;;;;;;;;;;;;;-145.06;100.00;60892.56;5976693;23;19908;-90
2023/02/26 02:44:20;;;;;;;;;;;;;;;-145.06;100.00;60892.56;5977281;23;19908;-90
2023/02/26 02:47:01;;;;;;;;;;;;;;;-145.06;100.00;60892.56;5976273;23;19960;-90
2023/02/26 02:49:46;;;;;;;;;;;;;;;-145.06;100.00;60892.56;5976496;23;19908;-90
2023/02/26 02:52:29;;;;;;;;;;;;;;;-145.06;100.00;60892.56;5976065;23;19978;-90
2023/02/26 02:55:11;;;;;;;;;;;;;;;-145.06;100.00;60892.56;5976648;23;19908;-91
2023/02/26 02:57:53;;;;;;;;;;;;;;;-145.06;100.00;60892.56;5975688;23;20367;-90
2023/02/26 03:00:35;;;;;;;;;;;;;;;-145.06;100.00;60892.56;5976866;23;19975;-89
2023/02/26 03:03:26;;;;;;;;;;;;;;;-145.06;100.00;60892.56;5976176;23;19908;-90
2023/02/26 03:06:06;;;;;;;;;;;;;;;-145.06;100.00;60892.56;5976687;23;19908;-90
2023/02/26 03:08:46;;;;;;;;;;;;;;;-145.06;100.00;60892.56;5975891;23;19986;-89
2023/02/26 03:11:25;;;;;;;;;;;;;;;-145.06;100.00;60892.56;5976611;23;19936;-89
2023/02/26 03:14:05;;;;;;;;;;;;;;;-145.06;100.00;60892.56;5975592;23;20112;-91
2023/02/26 03:17:04;;;;;;;;;;;;;;;-145.06;100.00;60892.56;5976102;23;19912;-90
2023/02/26 03:19:47;;;;;;;;;;;;;;;-145.06;100.00;60892.56;5977238;23;19908;-91
2023/02/26 03:22:26;;;;;;;;;;;;;;;-145.06;100.00;60892.56;5975449;23;19991;-89
2023/02/26 03:25:12;;;;;;;;;;;;;;;-145.06;100.00;60892.56;5976124;23;20318;-89
2023/02/26 03:27:51;;;;;;;;;;;;;;;-145.06;100.00;60892.56;5976462;23;19912;-90
2023/02/26 03:30:36;;;;;;;;;;;;;;;-145.06;100.00;60892.56;5973328;23;20216;-90
2023/02/26 03:33:24;;;;;;;;;;;;;;;-145.06;100.00;60892.56;5975923;23;19979;-92
2023/02/26 03:36:07;;;;;;;;;;;;;;;-145.06;100.00;60892.56;5975778;23;19908;-90
2023/02/26 03:38:57;;;;;;;;;;;;;;;-145.06;100.00;60892.56;5974246;23;20631;-91
2023/02/26 03:41:40;;;;;;;;;;;;;;;-145.06;100.00;60892.56;5975932;23;19927;-91
2023/02/26 03:44:23;;;;;;;;;;;;;;;-145.06;100.00;60892.56;5975318;23;19987;-89
2023/02/26 03:47:05;;;;;;;;;;;;;;;-145.06;100.00;60892.56;5974460;23;19920;-89
2023/02/26 03:50:04;;;;;;;;;;;;;;;-145.06;100.00;60892.56;5974750;23;19908;-90
2023/02/26 03:52:44;;;;;;;;;;;;;;;-145.06;100.00;60892.56;5974086;23;19916;-90
2023/02/26 03:55:36;;;;;;;;;;;;;;;-145.06;100.00;60892.56;5975572;23;20216;-90
2023/02/26 03:58:15;;;;;;;;;;;;;;;-145.06;100.00;60892.56;5974004;23;19924;-91
2023/02/26 04:01:05;;;;;;;;;;;;;;;-145.06;100.00;60892.56;5974883;23;20447;-90
2023/02/26 04:03:50;;;;;;;;;;;;;;;-145.06;100.00;60892.56;5975183;23;19912;-89
2023/02/26 04:06:30;;;;;;;;;;;;;;;-145.06;100.00;60892.56;5977089;23;20216;-91
2023/02/26 04:09:09;;;;;;;;;;;;;;;-145.06;100.00;60892.56;5975582;23;19911;-90
2023/02/26 04:11:48;;;;;;;;;;;;;;;-145.06;100.00;60892.56;5975512;23;19908;-89
2023/02/26 04:14:27;;;;;;;;;;;;;;;-145.06;100.00;60892.56;5976368;23;19908;-90
2023/02/26 04:17:06;;;;;;;;;;;;;;;-145.06;100.00;60892.56;5976025;23;19912;-91
2023/02/26 04:19:45;;;;;;;;;;;;;;;-145.06;100.00;60892.56;5975841;23;19908;-89
2023/02/26 04:22:24;;;;;;;;;;;;;;;-145.06;100.00;60892.56;5976943;23;19983;-90
2023/02/26 04:25:04;;;;;;;;;;;;;;;-145.06;100.00;60892.56;5976392;23;20540;-88
2023/02/26 04:27:42;;;;;;;;;;;;;;;-145.06;100.00;60892.56;5976515;23;19919;-90
2023/02/26 04:30:21;;;;;;;;;;;;;;;-145.06;100.00;60892.56;5975737;23;19912;-90
2023/02/26 04:33:00;;;;;;;;;;;;;;;-145.06;100.00;60892.56;5975108;23;20330;-90
2023/02/26 04:35:39;;;;;;;;;;;;;;;-145.06;100.00;60892.56;6010767;23;19908;-91
2023/02/26 04:38:18;;;;;;;;;;;;;;;-145.06;100.00;60892.56;5977324;23;19912;-90
2023/02/26 04:40:57;;;;;;;;;;;;;;;-145.06;100.00;60892.56;5977594;23;19908;-88
2023/02/26 04:43:36;;;;;;;;;;;;;;;-145.06;100.00;60892.56;5978267;23;19908;-89
2023/02/26 04:46:15;;;;;;;;;;;;;;;-145.06;100.00;60892.56;5977831;23;19908;-90
2023/02/26 04:48:54;;;;;;;;;;;;;;;-145.06;100.00;60892.56;5977911;23;20482;-91
2023/02/26 04:51:33;;;;;;;;;;;;;;;-145.06;100.00;60892.56;5978184;23;19982;-90
2023/02/26 04:54:12;;;;;;;;;;;;;;;-145.06;100.00;60892.56;5978071;23;19939;-89
2023/02/26 04:56:52;;;;;;;;;;;;;;;-145.06;100.00;60892.56;5978234;23;19908;-90
2023/02/26 04:59:31;;;;;;;;;;;;;;;-145.06;100.00;60892.56;5977833;23;19912;-90
2023/02/26 05:02:09;;;;;;;;;;;;;;;-145.06;100.00;60892.56;5978400;23;19912;-91
2023/02/26 05:04:48;;;;;;;;;;;;;;;-145.06;100.00;60892.56;6010301;23;19908;-91
2023/02/26 05:07:28;;;;;;;;;;;;;;;-145.06;100.00;60892.56;5978014;23;19912;-90
2023/02/26 05:10:07;;;;;;;;;;;;;;;-145.06;100.00;60892.56;5977593;23;20224;-90
2023/02/26 05:12:46;;;;;;;;;;;;;;;-145.06;100.00;60892.56;5977582;23;20283;-90
2023/02/26 05:15:25;;;;;;;;;;;;;;;-145.06;100.00;60892.56;5977390;23;19908;-90
2023/02/26 05:18:04;;;;;;;;;;;;;;;-145.06;100.00;60892.56;6010416;23;19912;-90
2023/02/26 05:20:43;;;;;;;;;;;;;;;-145.06;100.00;60892.56;5977384;23;19912;-92
2023/02/26 05:23:22;;;;;;;;;;;;;;;-145.06;100.00;60892.56;5977235;23;19916;-89
2023/02/26 05:26:01;;;;;;;;;;;;;;;-145.06;100.00;60892.56;5977262;23;19908;-91
2023/02/26 05:28:40;;;;;;;;;;;;;;;-145.06;100.00;60892.56;5975587;23;19912;-90
2023/02/26 05:31:19;;;;;;;;;;;;;;;-145.06;100.00;60892.56;5975501;23;19908;-90
2023/02/26 05:33:58;;;;;;;;;;;;;;;-145.06;100.00;60892.56;5975629;23;19912;-91
2023/02/26 05:36:37;;;;;;;;;;;;;;;-145.06;100.00;60892.56;5975169;23;19940;-89
2023/02/26 05:39:16;;;;;;;;;;;;;;;-145.06;100.00;60892.56;5976253;23;19908;-91
2023/02/26 05:41:55;;;;;;;;;;;;;;;-145.06;100.00;60892.56;5976401;23;20288;-89
2023/02/26 05:44:35;;;;;;;;;;;;;;;-145.06;100.00;60892.56;5975682;23;19912;-90
2023/02/26 05:47:13;;;;;;;;;;;;;;;-145.06;100.00;60892.56;5975736;23;19912;-90
2023/02/26 05:49:52;;;;;;;;;;;;;;;-145.06;100.00;60892.56;6007778;23;20350;-90
2023/02/26 05:52:31;;;;;;;;;;;;;;;-145.06;100.00;60892.56;5975921;23;19908;-89
2023/02/26 05:55:11;;;;;;;;;;;;;;;-145.06;100.00;60892.56;6008467;23;19930;-90
2023/02/26 05:57:50;;;;;;;;;;;;;;;-145.06;100.00;60892.56;5975760;23;19939;-89
2023/02/26 06:00:29;;;;;;;;;;;;;;;-145.06;100.00;60892.56;5976296;23;19912;-89
2023/02/26 06:03:08;;;;;;;;;;;;;;;-145.06;100.00;60892.56;5975328;23;20339;-89
2023/02/26 06:05:47;;;;;;;;;;;;;;;-145.06;100.00;60892.56;5976923;23;19958;-89
2023/02/26 06:08:26;;;;;;;;;;;;;;;-145.06;100.00;60892.56;5976298;23;19916;-89
2023/02/26 06:11:05;;;;;;;;;;;;;;;-145.06;100.00;60892.56;5976173;23;19908;-91
2023/02/26 06:13:45;;;;;;;;;;;;;;;-145.06;100.00;60892.56;5976594;23;19908;-90
2023/02/26 06:16:25;;;;;;;;;;;;;;;-145.06;100.00;60892.56;5983740;23;20342;-90
2023/02/26 06:19:05;;;;;;;;;;;;;;;-145.06;100.00;60892.56;5973543;23;19912;-90
2023/02/26 06:21:44;;;;;;;;;;;;;;;-145.06;100.00;60892.56;5974662;23;19912;-91
2023/02/26 06:24:23;;;;;;;;;;;;;;;-145.06;100.00;60892.56;5973485;23;19912;-89
2023/02/26 06:27:02;;;;;;;;;;;;;;;-145.06;100.00;60892.56;5973339;23;19908;-91
2023/02/26 06:29:41;;;;;;;;;;;;;;;-145.06;100.00;60892.56;5974392;23;19908;-89
2023/02/26 06:32:20;;;;;;;;;;;;;;;-145.06;100.00;60892.56;5972016;23;19912;-89
2023/02/26 06:34:59;;;;;;;;;;;;;;;-145.06;100.00;60892.56;5974312;23;19908;-91
2023/02/26 06:37:38;;;;;;;;;;;;;;;-145.06;100.00;60892.56;5971193;23;19911;-88
2023/02/26 06:40:17;;;;;;;;;;;;;;;-145.06;100.00;60892.56;5972871;23;19912;-91
2023/02/26 06:42:56;;;;;;;;;;;;;;;-145.06;100.00;60892.56;5974599;23;19908;-90
2023/02/26 06:45:35;;;;;;;;;;;;;;;-145.06;100.00;60892.56;5971955;23;19915;-89
2023/02/26 06:48:14;;;;;;;;;;;;;;;-145.06;100.00;60892.56;5973981;23;19911;-89
2023/02/26 06:50:53;;;;;;;;;;;;;;;-145.06;100.00;60892.56;5978786;23;19912;-90
2023/02/26 06:53:32;;;;;;;;;;;;;;;-145.06;100.00;60892.56;5976647;23;19908;-90
2023/02/26 06:56:11;;;;;;;;;;;;;;;-145.06;100.00;60892.56;5977882;23;19908;-91
2023/02/26 06:58:53;;;;;;;;;;;;;;;-145.06;100.00;60892.56;5977791;23;19912;-91
2023/02/26 07:01:35;;;;;;;;;;;;;;;-145.06;100.00;60892.56;5979791;23;20776;-91
2023/02/26 07:04:14;;;;;;;;;;;;;;;-145.06;100.00;60892.56;5980359;23;19907;-90
2023/02/26 07:06:53;;;;;;;;;;;;;;;-145.06;100.00;60892.56;6012233;23;19912;-91
2023/02/26 07:09:32;;;;;;;;;;;;;;;-145.06;100.00;60892.56;5979937;23;19908;-91
2023/02/26 07:12:11;;;;;;;;;;;;;;;-145.06;100.00;60892.56;5979750;23;20463;-91
2023/02/26 07:14:50;;;;;;;;;;;;;;;-145.06;100.00;60892.56;5979765;23;19908;-91
2023/02/26 07:17:29;;;;;;;;;;;;;;;-145.06;100.00;60892.56;5982386;23;19956;-90
2023/02/26 07:20:08;;;;;;;;;;;;;;;-145.06;100.00;60892.56;5981553;23;19908;-91
2023/02/26 07:22:48;;;;;;;;;;;;;;;-145.06;100.00;60892.56;5981507;23;20412;-90
2023/02/26 07:25:37;;;;;;;;;;;;;;;-145.06;100.00;60892.56;5981239;23;19916;-91
2023/02/26 07:31:45;;;;;;;;;;;;;;;-145.06;100.00;60892.56;6010024;23;19908;-90
2023/02/26 07:34:24;;;;;;;;;;;;;;;-145.06;100.00;60892.56;5980962;23;20316;-91
2023/02/26 07:37:03;;;;;;;;;;;;;;;-145.06;100.00;60892.56;5980205;23;19979;-90
2023/02/26 07:40:00;;;;;;;;;;;;;;;-145.06;100.00;60892.56;5983464;23;19908;-91
2023/02/26 07:42:39;;;;;;;;;;;;;;;-145.06;100.00;60892.56;5981204;23;19908;-89
2023/02/26 07:45:21;;;;;;;;;;;;;;;-145.06;100.00;60892.56;5981206;23;19916;-91
2023/02/26 07:48:00;;;;;;;;;;;;;;;-145.06;100.00;60892.56;5981515;23;19971;-90
2023/02/26 07:50:39;;;;;;;;;;;;;;;-145.06;100.00;60892.56;5981749;23;19927;-90
2023/02/26 07:53:18;;;;;;;;;;;;;;;-145.06;100.00;60892.56;5981800;23;19907;-91
2023/02/26 07:56:00;;;;;;;;;;;;;;;-145.06;100.00;60892.56;5983191;23;19933;-91
2023/02/26 07:58:39;;;;;;;;;;;;;;;-145.06;100.00;60892.56;5981768;23;19912;-91
2023/02/26 08:01:18;;;;;;;;;;;;;;;-145.06;100.00;60892.56;5982045;23;19982;-92
2023/02/26 08:03:57;;;;;;;;;;;;;;;-145.06;100.00;60892.56;5981070;23;19912;-91
2023/02/26 08:06:36;;;;;;;;;;;;;;;-145.06;100.00;60892.56;5982172;23;19912;-90
2023/02/26 08:09:15;;;;;;;;;;;;;;;-145.06;100.00;60892.56;5980897;23;20472;-90
2023/02/26 08:11:54;;;;;;;;;;;;;;;-145.06;100.00;60892.56;5981865;23;19912;-90
2023/02/26 08:14:33;;;;;;;;;;;;;;;-145.06;100.00;60892.56;5981438;23;19912;-89
2023/02/26 08:17:12;;;;;;;;;;;;;;;-145.06;100.00;60892.56;5981852;23;20172;-90
2023/02/26 08:19:50;;;;;;;;;;;;;;;-145.06;100.00;60892.56;5983249;23;19908;-91
2023/02/26 08:22:30;;;;;;;;;;;;;;;-145.06;100.00;60892.56;5982276;23;19911;-90
2023/02/26 08:25:09;;;;;;;;;;;;;;;-145.06;100.00;60892.56;6014914;23;19947;-90
2023/02/26 08:27:48;;;;;;;;;;;;;;;-145.06;100.00;60892.56;6014166;23;20219;-90
2023/02/26 08:30:27;;;;;;;;;;;;;;;-145.06;100.00;60892.56;5983060;23;20227;-91
2023/02/26 08:33:06;;;;;;;;;;;;;;;-145.06;100.00;60892.56;5983111;23;19908;-91
2023/02/26 08:35:45;;;;;;;;;;;;;;;-145.06;100.00;60892.56;5983798;23;19908;-92
2023/02/26 08:38:27;;;;;;;;;;;;;;;-145.06;100.00;60892.56;5981797;23;20311;-91
2023/02/26 08:41:07;;;;;;;;;;;;;;;-145.06;100.00;60892.56;5982427;23;19908;-89
2023/02/26 08:43:46;;;;;;;;;;;;;;;-145.06;100.00;60892.56;5982110;23;19908;-91
2023/02/26 08:46:25;;;;;;;;;;;;;;;-145.06;100.00;60892.56;5982324;23;19932;-90
2023/02/26 08:49:04;;;;;;;;;;;;;;;-145.06;100.00;60892.56;5981784;23;19912;-90
2023/02/26 08:51:43;;;;;;;;;;;;;;;-145.06;100.00;60892.56;5981942;23;19911;-90
2023/02/26 08:54:22;;;;;;;;;;;;;;;-145.06;100.00;60892.56;5982073;23;20319;-90
2023/02/26 08:57:02;;;;;;;;;;;;;;;-145.06;100.00;60892.56;5982468;23;19911;-91
2023/02/26 08:59:41;;;;;;;;;;;;;;;-145.06;100.00;60892.56;5982448;23;19912;-91
2023/02/26 09:02:20;;;;;;;;;;;;;;;-145.06;100.00;60892.56;5982637;23;19908;-91
2023/02/26 09:04:59;;;;;;;;;;;;;;;-145.06;100.00;60892.56;5981716;23;19947;-91
2023/02/26 09:07:38;;;;;;;;;;;;;;;-145.06;100.00;60892.56;5982565;23;19912;-91
2023/02/26 09:10:17;;;;;;;;;;;;;;;-145.06;100.00;60892.56;5982698;23;19931;-91
2023/02/26 09:12:56;;;;;;;;;;;;;;;-145.06;100.00;60892.56;5982497;23;19908;-91
2023/02/26 09:15:35;;;;;;;;;;;;;;;-145.06;100.00;60892.56;5982347;23;19939;-92
2023/02/26 09:18:14;;;;;;;;;;;;;;;-145.06;100.00;60892.56;5982131;23;20275;-92
2023/02/26 09:20:53;;;;;;;;;;;;;;;-145.06;100.00;60892.56;5982132;23;19912;-92
2023/02/26 09:23:32;;;;;;;;;;;;;;;-145.06;100.00;60892.56;5982896;23;19908;-91
2023/02/26 09:26:11;;;;;;;;;;;;;;;-145.06;100.00;60892.56;5982178;23;19912;-91
2023/02/26 09:28:50;;;;;;;;;;;;;;;-145.06;100.00;60892.56;5982283;23;19908;-91
2023/02/26 09:31:29;;;;;;;;;;;;;;;-145.06;100.00;60892.56;5982501;23;20066;-91
2023/02/26 09:34:08;;;;;;;;;;;;;;;-145.06;100.00;60892.56;5981931;23;20323;-91
2023/02/26 09:36:47;;;;;;;;;;;;;;;-145.06;100.00;60892.56;5983876;23;20216;-92
2023/02/26 09:39:26;;;;;;;;;;;;;;;-145.06;100.00;60892.56;6015004;23;19979;-90
2023/02/26 09:42:43;;;;;;;;;;;;;;;-145.06;100.00;60892.56;5982520;23;19908;-92
2023/02/26 09:45:29;;;;;;;;;;;;;;;-145.06;100.00;60892.56;5895890;23;19917;-91
2023/02/26 09:48:10;;;;;;;;;;;;;;;-145.06;100.00;60892.56;5895704;23;19909;-92
2023/02/26 09:50:52;;;;;;;;;;;;;;;-145.06;100.00;60892.56;5974318;23;19912;-92
2023/02/26 09:53:34;;;;;;;;;;;;;;;-145.06;100.00;60892.56;5992017;23;19908;-91
2023/02/26 09:56:15;;;;;;;;;;;;;;;-145.06;100.00;60892.56;5983310;23;19912;-92
2023/02/26 09:58:54;;;;;;;;;;;;;;;-145.06;100.00;60892.56;5983522;23;19911;-92
2023/02/26 10:01:57;;;;;;;;;;;;;;;-145.06;100.00;60892.56;5983318;23;19915;-91
2023/02/26 10:04:47;;;;;;;;;;;;;;;-145.06;100.00;60892.56;5983543;23;19912;-94
2023/02/26 10:07:29;;;;;;;;;;;;;;;-145.06;100.00;60892.56;5984117;23;19907;-92
2023/02/26 10:10:28;;;;;;;;;;;;;;;-145.06;100.00;60892.56;5983858;23;19908;-92
2023/02/26 10:13:20;;;;;;;;;;;;;;;-145.06;100.00;60892.56;5984153;23;19907;-93
2023/02/26 10:16:04;;;;;;;;;;;;;;;-145.06;100.00;60892.56;5983708;23;19908;-91
2023/02/26 10:18:51;;;;;;;;;;;;;;;-145.06;100.00;60892.56;5983912;23;20323;-92
2023/02/26 10:21:40;;;;;;;;;;;;;;;-145.06;100.00;60892.56;5984025;23;20228;-92
2023/02/26 10:24:22;;;;;;;;;;;;;;;-145.06;100.00;60892.56;5983095;23;20331;-91
2023/02/26 10:27:16;;;;;;;;;;;;;;;-145.06;100.00;60892.56;5983134;23;19992;-93
2023/02/26 10:29:58;;;;;;;;;;;;;;;-145.06;100.00;60892.56;5983596;23;19907;-92
2023/02/26 10:32:42;;;;;;;;;;;;;;;-145.06;100.00;60892.56;5983547;23;19951;-93
2023/02/26 10:35:24;;;;;;;;;;;;;;;-145.06;100.00;60892.56;5984401;23;19908;-91
2023/02/26 10:38:11;;;;;;;;;;;;;;;-145.06;100.00;60892.56;5985560;22;19908;-92
2023/02/26 10:41:01;;;;;;;;;;;;;;;-145.06;100.00;60892.56;6000998;22;20711;-93
2023/02/26 10:43:42;;;;;;;;;;;;;;;-145.06;100.00;60892.56;5999225;23;19916;-92
2023/02/26 10:46:42;;;;;;;;;;;;;;;-145.06;100.00;60892.56;5983331;23;19908;-92
2023/02/26 10:49:41;;;;;;;;;;;;;;;-145.06;100.00;60892.56;5954062;23;19912;-93
2023/02/26 10:52:24;;;;;;;;;;;;;;;-145.06;100.00;60892.56;5954399;23;19932;-92
2023/02/26 10:55:16;;;;;;;;;;;;;;;-145.06;100.00;60892.56;5953814;23;19948;-92
2023/02/26 10:58:07;;;;;;;;;;;;;;;-145.06;100.00;60892.56;5953553;23;19912;-91
2023/02/26 11:00:48;;;;;;;;;;;;;;;-145.06;100.00;60892.56;5954260;23;19908;-90
2023/02/26 11:03:28;;;;;;;;;;;;;;;-145.06;100.00;60892.56;5953242;23;19932;-92
2023/02/26 11:06:07;;;;;;;;;;;;;;;-145.06;100.00;60892.56;5953552;23;19972;-91
2023/02/26 11:08:49;;;;;;;;;;;;;;;-145.06;100.00;60892.56;5953306;23;19916;-91
2023/02/26 11:11:37;;;;;;;;;;;;;;;-145.06;100.00;60892.56;5953012;23;19908;-92
2023/02/26 11:14:18;;;;;;;;;;;;;;;-145.06;100.00;60892.56;5952743;23;19908;-92
2023/02/26 11:17:03;;;;;;;;;;;;;;;-145.06;100.00;60892.56;5953192;23;19912;-92
2023/02/26 11:19:50;;;;;;;;;;;;;;;-145.06;100.00;60892.56;5953150;23;19904;-93
2023/02/26 11:22:31;;;;;;;;;;;;;;;-145.06;100.00;60892.56;5952859;23;19908;-93
2023/02/26 11:25:12;;;;;;;;;;;;;;;-145.06;100.00;60892.56;5952688;23;19908;-92
2023/02/26 11:27:58;;;;;;;;;;;;;;;-145.06;100.00;60892.56;5953138;23;19912;-91
2023/02/26 11:30:37;;;;;;;;;;;;;;;-145.06;100.00;60892.56;5953114;23;19908;-92
2023/02/26 11:33:26;;;;;;;;;;;;;;;-145.06;100.00;60892.56;5953336;23;19908;-92
2023/02/26 11:36:19;;;;;;;;;;;;;;;-145.06;100.00;60892.56;5953010;23;19912;-92
2023/02/26 11:39:07;;;;;;;;;;;;;;;-145.06;100.00;60892.56;5952491;23;19908;-92
2023/02/26 11:41:50;;;;;;;;;;;;;;;-145.06;100.00;60892.56;5952576;23;19916;-90
2023/02/26 11:44:52;;;;;;;;;;;;;;;-145.06;100.00;60892.56;5952842;23;19908;-92
2023/02/26 11:47:35;;;;;;;;;;;;;;;-145.06;100.00;60892.56;5952109;23;19912;-91
2023/02/26 11:50:27;;;;;;;;;;;;;;;-145.06;100.00;60892.56;5951631;23;19912;-92
2023/02/26 11:53:27;;;;;;;;;;;;;;;;;;;;;
2023/02/26 11:56:16;;;;;;;;;;;;;;;-145.06;100.00;60892.56;5983845;23;20221;-93
2023/02/26 11:59:03;;;;;;;;;;;;;;;-145.06;100.00;60892.56;5952035;23;19912;-91
2023/02/26 12:01:49;;;;;;;;;;;;;;;-145.06;100.00;60892.56;5952808;23;19909;-90
2023/02/26 12:04:40;;;;;;;;;;;;;;;;;;;;;
2023/02/26 12:08:18;;;;;;;;;;;;;;;-145.06;100.00;60892.56;5983560;23;20437;-92
2023/02/26 12:11:26;;;;;;;;;;;;;;;-145.06;100.00;60892.56;5969279;23;19913;-93
2023/02/26 12:14:15;;;;;;;;;;;;;;;-145.06;100.00;60892.56;5951949;23;19912;-91
2023/02/26 12:17:27;;;;;;;;;;;;;;;-145.06;100.00;60892.56;5952380;23;20335;-92
2023/02/26 12:20:18;;;;;;;;;;;;;;;-145.06;100.00;60892.56;5952305;23;19912;-92
2023/02/26 12:23:38;;;;;;;;;;;;;;;;;;;;;
2023/02/26 12:26:44;;;;;;;;;;;;;;;-145.06;100.00;60892.56;5985818;23;19912;-92
2023/02/26 12:29:51;;;;;;;;;;;;;;;-145.06;100.00;60892.56;5951870;23;19913;-92
2023/02/26 12:32:42;;;;;;;;;;;;;;;-145.06;100.00;60892.56;5954656;23;19951;-91
2023/02/26 12:35:44;;;;;;;;;;;;;;;-145.06;100.00;60892.56;5954668;23;19908;-91
2023/02/26 12:38:49;;;;;;;;;;;;;;;-145.06;100.00;60892.56;5954201;23;19908;-93
2023/02/26 12:41:55;;;;;;;;;;;;;;;-145.06;100.00;60892.56;5954017;23;19936;-92
2023/02/26 12:45:15;;;;;;;;;;;;;;;-145.06;100.00;60892.56;5954710;23;19916;-92
2023/02/26 12:48:23;;;;;;;;;;;;;;;-145.06;100.00;60892.56;5924158;23;19913;-91
2023/02/26 12:51:42;;;;;;;;;;;;;;;;;;;;;
2023/02/26 12:54:41;;;;;;;;;;;;;;;-145.06;100.00;60892.56;5955207;23;19909;-91
2023/02/26 12:57:35;;;;;;;;;;;;;;;-145.06;100.00;60892.56;5953344;23;19908;-92
2023/02/26 13:00:26;;;;;;;;;;;;;;;-145.06;100.00;60892.56;5954068;23;19912;-92
2023/02/26 13:03:11;;;;;;;;;;;;;;;-145.06;100.00;60892.56;5953685;23;20236;-91
2023/02/26 13:06:12;;;;;;;;;;;;;;;-145.06;100.00;60892.56;5953719;23;19991;-94
2023/02/26 13:09:17;;;;;;;;;;;;;;;-145.06;100.00;60892.56;5953798;23;19936;-91
2023/02/26 13:12:31;;;;;;;;;;;;;;;-145.06;100.00;60892.56;5953767;23;20228;-92
2023/02/26 13:15:22;;;;;;;;;;;;;;;-145.06;100.00;60892.56;5954020;23;20315;-91
2023/02/26 13:18:04;;;;;;;;;;;;;;;-145.06;100.00;60892.56;5953874;23;19913;-92
2023/02/26 13:20:54;;;;;;;;;;;;;;;-145.06;100.00;60892.56;5954135;23;19908;-91
2023/02/26 13:23:41;;;;;;;;;;;;;;;-145.06;100.00;60892.56;5953988;23;20327;-91
2023/02/26 13:26:21;;;;;;;;;;;;;;;-145.06;100.00;60892.56;5953729;23;20220;-92
2023/02/26 13:29:05;;;;;;;;;;;;;;;-145.06;100.00;60892.56;5953494;23;19912;-90
2023/02/26 13:31:49;;;;;;;;;;;;;;;-145.06;100.00;60892.56;5954049;23;19908;-90
2023/02/26 13:34:43;;;;;;;;;;;;;;;-145.06;100.00;60892.56;5954212;23;20312;-91
2023/02/26 13:37:24;;;;;;;;;;;;;;;-145.06;100.00;60892.56;5952610;23;19908;-90
2023/02/26 13:40:16;;;;;;;;;;;;;;;-145.06;100.00;60892.56;5953393;23;19956;-92
2023/02/26 13:43:14;;;;;;;;;;;;;;;-145.06;100.00;60892.56;5953845;23;19935;-92
2023/02/26 13:46:12;;;;;;;;;;;;;;;-145.06;100.00;60892.56;5953484;23;19908;-90
2023/02/26 13:49:08;;;;;;;;;;;;;;;-145.06;100.00;60892.56;5954536;23;19932;-90
2023/02/26 13:51:48;;;;;;;;;;;;;;;-145.06;100.00;60892.56;5953656;23;19928;-90